Time;durP1;ratioP1;P1;durP2;ratioP2;P2;SDS_P1;SDS_P2;PMS_P1;PMS_P2;Temp;Humidity;BMP_temperature;BMP_pressure;BME280_temperature;BME280_humidity;BME280_pressure;Samples;Min_cycle;Max_cycle;Signal;HPM_P1;HPM_P2
2022/11/29 00:01:03;;;;;;;27.90;13.90;;;;;;;0.28;82.42;99952.42;102335;1298;74254;-24
2022/11/29 00:03:32;;;;;;;30.00;14.30;;;;;;;-0.03;83.77;99952.12;102148;1303;61601;-24
2022/11/29 00:06:07;;;;;;;27.90;14.70;;;;;;;-0.26;84.98;99949.92;102143;1302;61873;-24
2022/11/29 00:08:35;;;;;;;21.90;9.50;;;;;;;-0.37;85.74;99949.98;102175;1298;75418;-24
2022/11/29 00:11:07;;;;;;;27.10;12.10;;;;;;;-0.02;86.03;99950.56;102322;1300;75956;-24
2022/11/29 00:13:34;;;;;;;22.20;12.10;;;;;;;0.59;84.13;99950.27;102213;1301;73101;-24
2022/11/29 00:16:07;;;;;;;29.60;14.30;;;;;;;0.89;83.89;99953.42;102362;1299;61599;-24
2022/11/29 00:18:35;;;;;;;22.20;11.90;;;;;;;0.63;82.56;99948.80;102165;1301;61324;-24
2022/11/29 00:21:06;;;;;;;23.90;13.20;;;;;;;0.19;83.21;99945.29;102361;1297;75512;-24
2022/11/29 00:23:34;;;;;;;20.90;10.80;;;;;;;-0.08;84.90;99949.36;102172;1302;75771;-25
2022/11/29 00:26:04;;;;;;;31.20;14.80;;;;;;;-0.19;85.17;99947.36;102074;1303;74351;-24
2022/11/29 00:28:32;;;;;;;16.50;8.70;;;;;;;-0.42;86.40;99942.74;102052;1305;61178;-24
2022/11/29 00:30:59;;;;;;;31.10;13.20;;;;;;;0.04;85.68;99943.59;102107;1294;61142;-25
2022/11/29 00:33:28;;;;;;;35.10;16.60;;;;;;;0.62;83.88;99951.73;101950;1299;75275;-24
2022/11/29 00:36:00;;;;;;;28.10;13.50;;;;;;;0.81;82.56;99951.92;102079;1300;75854;-24
2022/11/29 00:38:28;;;;;;;25.60;12.00;;;;;;;0.66;82.27;99952.51;102046;1297;74280;-24
2022/11/29 00:40:55;;;;;;;48.10;23.40;;;;;;;0.34;82.85;99948.86;102365;1291;61143;-24
2022/11/29 00:43:23;;;;;;;27.80;14.60;;;;;;;0.14;83.91;99942.84;102263;1299;61948;-24
2022/11/29 00:45:51;;;;;;;31.70;16.30;;;;;;;-0.25;85.68;99942.54;102035;1299;75451;-24
2022/11/29 00:48:18;;;;;;;15.80;8.10;;;;;;;-0.30;86.31;99945.39;102345;1299;74178;-24
2022/11/29 00:50:46;;;;;;;28.00;13.80;;;;;;;0.15;85.65;99948.47;102409;1281;74270;-25
2022/11/29 00:53:14;;;;;;;32.50;15.50;;;;;;;0.66;83.52;99943.95;102307;1298;61830;-24
2022/11/29 00:55:49;;;;;;;29.90;13.60;;;;;;;0.81;82.33;99939.45;102250;1297;61816;-24
2022/11/29 00:58:17;;;;;;;33.30;15.80;;;;;;;0.59;82.49;99939.85;102088;1297;74264;-25
2022/11/29 01:00:44;;;;;;;38.20;19.50;;;;;;;0.38;82.83;99936.98;102145;1300;74876;-24
2022/11/29 01:03:12;;;;;;;34.40;14.60;;;;;;;0.05;84.05;99930.77;102344;1296;73516;-25
2022/11/29 01:05:41;;;;;;;25.60;14.10;;;;;;;-0.19;85.48;99930.13;102363;1297;61180;-24
2022/11/29 01:08:10;;;;;;;24.20;10.70;;;;;;;-0.36;86.45;99933.59;102330;1291;61172;-24
2022/11/29 01:10:37;;;;;;;22.80;12.30;;;;;;;0.06;86.07;99929.89;101991;1297;75028;-24
2022/11/29 01:13:05;;;;;;;27.80;14.00;;;;;;;0.64;84.16;99928.60;102263;1297;74731;-24
2022/11/29 01:15:33;;;;;;;26.90;14.90;;;;;;;0.48;82.96;99926.11;102298;1291;74272;-24
2022/11/29 01:18:00;;;;;;;25.20;12.70;;;;;;;0.47;83.26;99923.42;102107;1293;61757;-24
2022/11/29 01:20:28;;;;;;;19.90;11.00;;;;;;;0.20;83.64;99923.56;102329;1299;61575;-24
2022/11/29 01:22:56;;;;;;;22.50;12.90;;;;;;;0.03;84.50;99923.83;102291;1299;74214;-24
2022/11/29 01:25:24;;;;;;;26.30;12.60;;;;;;;-0.19;85.22;99923.64;101137;1302;1294953;-24
2022/11/29 01:27:51;;;;;;;19.20;9.20;;;;;;;-0.31;86.26;99915.39;102187;1301;74152;-24
2022/11/29 01:30:20;;;;;;;22.40;11.70;;;;;;;-0.19;86.40;99910.67;102294;1299;61738;-25
2022/11/29 01:32:48;;;;;;;25.10;12.70;;;;;;;0.50;84.63;99906.42;102361;1297;61763;-24
2022/11/29 01:35:16;;;;;;;24.20;12.40;;;;;;;0.45;83.25;99903.30;102291;1299;75398;-24
2022/11/29 01:37:44;;;;;;;24.40;12.30;;;;;;;0.24;84.06;99902.80;102231;1298;75669;-24
2022/11/29 01:40:12;;;;;;;23.20;12.00;;;;;;;0.14;84.24;99903.91;102258;1299;74225;-24
2022/11/29 01:42:40;;;;;;;21.60;10.40;;;;;;;-0.07;84.94;99902.58;102125;1302;61171;-24
2022/11/29 01:45:23;;;;;;;22.70;11.90;;;;;;;-0.26;85.82;99899.73;102362;1299;61862;-24
2022/11/29 01:47:53;;;;;;;15.00;7.80;;;;;;;-0.36;86.63;99901.31;102093;1301;75444;-24
2022/11/29 01:50:21;;;;;;;23.80;11.80;;;;;;;0.04;85.79;99902.11;102129;1300;75625;-24
2022/11/29 01:52:48;;;;;;;20.00;11.20;;;;;;;0.66;83.90;99900.88;102151;1300;74431;-24
2022/11/29 01:55:16;;;;;;;24.60;13.10;;;;;;;0.78;82.56;99900.74;102213;1300;62479;-24
2022/11/29 01:57:44;;;;;;;24.00;12.20;;;;;;;0.49;82.63;99902.52;102160;1300;61797;-25
2022/11/29 02:00:15;;;;;;;23.30;11.90;;;;;;;0.20;83.72;99894.37;102116;1298;75330;-26
2022/11/29 02:02:48;;;;;;;25.60;11.30;;;;;;;-0.06;85.19;99895.53;102114;1299;75819;-26
2022/11/29 02:05:18;;;;;;;12.60;6.90;;;;;;;-0.36;86.33;99896.02;101982;1302;74397;-24
2022/11/29 02:07:53;;;;;;;23.40;11.30;;;;;;;-0.02;86.37;99901.04;102019;1299;62654;-25
2022/11/29 02:10:24;;;;;;;27.60;15.00;;;;;;;0.51;83.91;99903.33;102121;1301;61888;-25
2022/11/29 02:12:52;;;;;;;23.40;11.90;;;;;;;0.44;83.14;99899.06;102077;1300;74404;-24
2022/11/29 02:15:41;;;;;;;19.50;10.20;;;;;;;0.34;83.83;99895.74;102170;1302;75713;-24
2022/11/29 02:18:13;;;;;;;20.20;9.70;;;;;;;0.23;84.00;99896.87;102247;1291;73267;-26
2022/11/29 02:21:02;;;;;;;21.30;11.10;;;;;;;0.06;84.43;99896.42;101990;1302;61184;-24
2022/11/29 02:24:06;;;;;;;17.50;9.70;;;;;;;-0.24;85.69;99896.27;102072;1291;61052;-23
2022/11/29 02:26:58;;;;;;;19.30;8.80;;;;;;;-0.22;86.85;99895.71;102262;1299;74428;-24
2022/11/29 02:30:04;;;;;;;22.40;11.60;;;;;;;0.55;84.40;99888.19;102087;1302;75807;-23
2022/11/29 02:33:10;;;;;;;20.50;10.60;;;;;;;0.77;82.73;99893.40;102173;1300;74184;-23
2022/11/29 02:36:00;;;;;;;19.00;10.10;;;;;;;0.34;83.08;99892.82;102116;1302;61815;-23
2022/11/29 02:38:52;;;;;;;22.50;10.30;;;;;;;0.13;84.29;99889.43;102229;1299;61934;-23
2022/11/29 02:41:39;;;;;;;18.40;9.10;;;;;;;-0.13;85.40;99889.55;102140;1298;75266;-23
2022/11/29 02:44:39;;;;;;;20.60;10.10;;;;;;;-0.20;85.38;99888.50;102315;1298;75860;-23
2022/11/29 02:47:14;;;;;;;16.70;7.00;;;;;;;-0.28;85.96;99888.70;102237;1302;74122;-23
2022/11/29 02:50:04;;;;;;;21.20;9.40;;;;;;;0.24;85.22;99886.25;102260;1301;61221;-23
2022/11/29 02:52:56;;;;;;;22.50;10.80;;;;;;;0.84;82.91;99889.78;102184;1300;61967;-23
2022/11/29 02:55:27;;;;;;;23.10;11.80;;;;;;;0.80;82.20;99887.36;102049;1297;75423;-23
2022/11/29 02:58:31;;;;;;;21.90;10.90;;;;;;;0.53;82.23;99886.67;102136;1302;76364;-23
2022/11/29 03:01:15;;;;;;;23.40;10.00;;;;;;;0.25;83.53;99886.89;101459;1299;74319;-23
2022/11/29 03:03:51;;;;;;;22.40;10.10;;;;;;;-0.43;86.39;99883.23;102009;1298;61185;-23
2022/11/29 03:06:40;;;;;;;14.60;8.80;;;;;;;-0.37;87.77;99886.17;102176;1299;61808;-23
2022/11/29 03:09:34;;;;;;;13.90;6.70;;;;;;;-0.42;87.48;99884.73;102216;1299;75469;-23
2022/11/29 03:12:13;;;;;;;16.10;9.00;;;;;;;0.35;85.97;99886.30;102014;1298;75784;-23
2022/11/29 03:15:06;;;;;;;16.50;9.00;;;;;;;0.99;84.17;99887.33;102269;1302;74146;-23
2022/11/29 03:17:42;;;;;;;16.40;8.60;;;;;;;0.89;82.54;99885.73;101912;1302;61810;-24
2022/11/29 03:20:43;;;;;;;19.90;11.10;;;;;;;0.69;82.52;99885.42;102097;1299;61925;-23
2022/11/29 03:23:20;;;;;;;20.10;11.20;;;;;;;0.40;83.34;99888.05;102419;1298;75563;-23
2022/11/29 03:25:50;;;;;;;23.20;11.20;;;;;;;0.12;84.26;99887.73;105961;1291;74780;-25
2022/11/29 03:28:37;;;;;;;18.70;11.10;;;;;;;-0.13;85.55;99889.53;105810;1302;72752;-24
2022/11/29 03:31:57;;;;;;;12.00;6.60;;;;;;;-0.24;86.12;99890.14;105824;1294;61137;-24
2022/11/29 03:34:44;;;;;;;16.70;7.60;;;;;;;0.67;85.27;99890.92;105656;1295;60160;-24
2022/11/29 03:37:20;;;;;;;17.90;10.70;;;;;;;1.03;82.41;99891.81;105832;1291;73784;-24
2022/11/29 03:39:55;;;;;;;19.60;10.00;;;;;;;1.08;81.82;99890.35;105709;1291;75338;-24
2022/11/29 03:42:25;;;;;;;21.40;11.80;;;;;;;0.92;82.18;99887.19;105819;1290;73592;-23
2022/11/29 03:45:14;;;;;;;15.70;9.70;;;;;;;0.62;82.33;99887.64;105677;1297;58914;-24
2022/11/29 03:47:50;;;;;;;18.20;9.70;;;;;;;0.38;83.12;99890.51;105741;1295;61373;-24
2022/11/29 03:50:20;;;;;;;20.50;11.30;;;;;;;0.10;84.48;99891.36;105798;1294;75089;-23
2022/11/29 03:52:54;;;;;;;16.30;7.30;;;;;;;-0.11;85.45;99891.38;105718;1294;74273;-24
2022/11/29 03:55:21;;;;;;;;;;;;;;;0.37;85.27;99891.05;105834;1294;72419;-24
2022/11/29 03:58:22;;;;;;;32.70;15.90;;;;;;;0.96;83.62;99893.21;105829;1295;60157;-24
2022/11/29 04:01:21;;;;;;;20.40;11.60;;;;;;;1.09;82.08;99892.53;105796;1294;59938;-25
2022/11/29 04:04:10;;;;;;;20.90;10.40;;;;;;;0.75;82.17;99891.05;105812;1290;74902;-24
2022/11/29 04:07:01;;;;;;;39.40;18.30;;;;;;;0.54;83.02;99891.11;105967;1291;75241;-24
2022/11/29 04:09:41;;;;;;;25.80;13.50;;;;;;;0.33;84.00;99891.33;105685;1298;74444;-24
2022/11/29 04:12:36;;;;;;;29.90;13.50;;;;;;;0.11;84.82;99890.48;105749;1295;59616;-24
2022/11/29 04:15:16;;;;;;;17.30;7.60;;;;;;;0.07;84.92;99892.81;105975;1284;60582;-24
2022/11/29 04:18:10;;;;;;;19.40;10.10;;;;;;;0.70;84.51;99895.63;105731;1294;72941;-24
2022/11/29 04:20:54;;;;;;;20.30;11.40;;;;;;;1.29;81.95;99897.06;105840;1292;73606;-24
2022/11/29 04:23:27;;;;;;;14.90;9.20;;;;;;;1.27;81.22;99895.77;105743;1295;72739;-24
2022/11/29 04:26:31;;;;;;;17.30;9.50;;;;;;;0.93;81.68;99894.48;105735;1295;61633;-24
2022/11/29 04:29:14;;;;;;;17.80;9.80;;;;;;;0.60;82.81;99900.52;105885;1290;61866;-24
2022/11/29 04:31:50;;;;;;;16.30;9.40;;;;;;;0.42;84.09;99899.98;105879;1288;73823;-24
2022/11/29 04:34:39;;;;;;;18.60;9.80;;;;;;;0.32;84.30;99903.83;106010;1292;75372;-24
2022/11/29 04:37:09;;;;;;;11.10;5.10;;;;;;;0.13;85.08;99898.30;105969;1288;73933;-24
2022/11/29 04:40:01;;;;;;;16.60;8.10;;;;;;;0.67;84.61;99904.77;105747;1288;60888;-24
2022/11/29 04:42:59;;;;;;;16.00;9.40;;;;;;;1.24;82.54;99902.67;105782;1294;60418;-24
2022/11/29 04:45:42;;;;;;;11.70;6.80;;;;;;;1.33;81.85;99902.77;105859;1290;74006;-24
2022/11/29 04:48:22;;;;;;;12.40;7.30;;;;;;;1.01;81.61;99909.66;105894;1292;73598;-24
2022/11/29 04:51:18;;;;;;;15.80;8.90;;;;;;;0.80;82.39;99909.90;105794;1285;73849;-24
2022/11/29 04:54:02;;;;;;;12.30;7.60;;;;;;;0.51;83.48;99914.94;105906;1292;58700;-24
2022/11/29 04:56:32;;;;;;;13.00;7.00;;;;;;;0.36;83.84;99914.64;105752;1291;59983;-24
2022/11/29 04:59:18;;;;;;;6.60;4.30;;;;;;;0.26;84.22;99916.43;105749;1294;74848;-24
2022/11/29 05:02:11;;;;;;;10.10;5.80;;;;;;;0.79;83.94;99916.39;105881;1288;75193;-24
2022/11/29 05:04:50;;;;;;;11.70;6.50;;;;;;;1.36;81.91;99915.16;105884;1292;72655;-24
2022/11/29 05:07:56;;;;;;;12.70;7.50;;;;;;;1.28;81.30;99916.08;105766;1295;61214;-24
2022/11/29 05:10:30;;;;;;;8.40;5.80;;;;;;;1.07;81.85;99919.23;105867;1285;61514;-24
2022/11/29 05:13:32;;;;;;;10.20;6.10;;;;;;;0.83;82.30;99915.79;105719;1287;72820;-24
2022/11/29 05:16:21;;;;;;;14.50;8.20;;;;;;;0.56;83.20;99921.66;105574;1281;74585;-24
2022/11/29 05:18:49;;;;;;;6.80;3.90;;;;;;;0.46;83.81;99922.58;105888;1291;73686;-24
2022/11/29 05:21:41;;;;;;;12.30;7.60;;;;;;;1.00;83.52;99922.51;105741;1294;60657;-24
2022/11/29 05:24:32;;;;;;;11.20;5.80;;;;;;;1.63;81.61;99926.69;105767;1287;61155;-24
2022/11/29 05:27:25;;;;;;;13.80;6.90;;;;;;;1.54;80.58;99923.71;105749;1278;75196;-24
2022/11/29 05:30:05;;;;;;;8.20;5.80;;;;;;;1.34;81.27;99925.33;105915;1292;75098;-24
2022/11/29 05:32:42;;;;;;;10.50;6.10;;;;;;;1.06;81.71;99924.40;105748;1294;73794;-24
2022/11/29 05:35:32;;;;;;;8.90;6.20;;;;;;;0.77;82.38;99926.05;105752;1287;59545;-24
2022/11/29 05:38:14;;;;;;;10.60;6.90;;;;;;;0.56;83.16;99930.69;105697;1297;61327;-24
2022/11/29 05:40:52;;;;;;;9.70;5.40;;;;;;;0.57;83.80;99932.90;105699;1288;74957;-24
2022/11/29 05:43:50;;;;;;;9.40;4.10;;;;;;;1.25;83.18;99934.82;105708;1295;75329;-24
2022/11/29 05:46:23;;;;;;;7.40;4.70;;;;;;;1.51;81.90;99934.93;105749;1294;73937;-24
2022/11/29 05:49:08;;;;;;;8.30;4.30;;;;;;;1.36;81.64;99939.47;105749;1294;60154;-24
2022/11/29 05:52:04;;;;;;;5.50;3.50;;;;;;;1.11;81.99;99940.36;105688;1297;61229;-24
2022/11/29 05:54:37;;;;;;;5.20;3.70;;;;;;;0.83;82.77;99944.52;105696;1293;72658;-24
2022/11/29 05:57:14;;;;;;;4.60;2.70;;;;;;;0.60;83.62;99946.14;105719;1295;75214;-24
2022/11/29 05:59:42;;;;;;;5.10;3.90;;;;;;;0.87;84.19;99946.63;105729;1291;72665;-24
2022/11/29 06:02:22;;;;;;;6.40;4.10;;;;;;;1.51;82.87;99948.42;105905;1284;60436;-24
2022/11/29 06:04:56;;;;;;;6.40;3.80;;;;;;;1.69;81.76;99950.15;105743;1288;61372;-24
2022/11/29 06:07:48;;;;;;;9.70;5.70;;;;;;;1.50;81.54;99950.70;105928;1278;74841;-24
2022/11/29 06:10:17;;;;;;;8.30;5.20;;;;;;;1.23;81.92;99950.95;105751;1292;75343;-24
2022/11/29 06:12:48;;;;;;;10.30;4.90;;;;;;;1.02;82.75;99952.23;105666;1295;73744;-23
2022/11/29 06:15:31;;;;;;;7.50;4.40;;;;;;;0.81;83.25;99957.92;105587;1297;59446;-24
2022/11/29 06:18:22;;;;;;;5.10;3.10;;;;;;;0.72;83.95;99959.00;105721;1294;61535;-24
2022/11/29 06:21:13;;;;;;;5.90;3.50;;;;;;;1.48;83.47;99958.96;105707;1293;75074;-23
2022/11/29 06:23:50;;;;;;;7.60;4.70;;;;;;;2.03;81.47;99966.56;105738;1294;74332;-24
2022/11/29 06:26:43;;;;;;;7.00;3.80;;;;;;;1.99;80.87;99963.95;105723;1294;72086;-23
2022/11/29 06:29:32;;;;;;;7.10;4.30;;;;;;;1.74;81.04;99966.23;105772;1294;60397;-23
2022/11/29 06:32:02;;;;;;;8.50;4.70;;;;;;;1.46;81.76;99966.05;105750;1293;59503;-23
2022/11/29 06:35:04;;;;;;;6.90;4.20;;;;;;;1.19;82.42;99963.22;105724;1294;74939;-23
2022/11/29 06:37:39;;;;;;;8.00;4.30;;;;;;;1.00;83.43;99963.91;105657;1287;74311;-23
2022/11/29 06:40:11;;;;;;;5.60;3.50;;;;;;;1.58;83.33;99966.73;105655;1282;73697;-23
2022/11/29 06:42:38;;;;;;;5.30;3.90;;;;;;;2.03;81.63;99968.42;105729;1294;59218;-23
2022/11/29 06:45:11;;;;;;;6.10;4.30;;;;;;;1.98;80.92;99970.49;105717;1291;60328;-23
2022/11/29 06:47:48;;;;;;;6.80;4.50;;;;;;;1.80;81.19;99969.66;105728;1294;75092;-23
2022/11/29 06:50:28;;;;;;;5.20;3.60;;;;;;;1.54;81.69;99968.89;105646;1295;75290;-23
2022/11/29 06:53:01;;;;;;;7.00;4.00;;;;;;;1.31;82.44;99967.50;105739;1291;73690;-23
2022/11/29 06:55:57;;;;;;;10.20;4.50;;;;;;;1.26;83.06;99971.93;105665;1297;62286;-23
2022/11/29 06:58:43;;;;;;;7.40;4.10;;;;;;;1.77;82.36;99973.85;105721;1287;59098;-23
2022/11/29 07:01:49;;;;;;;6.40;4.10;;;;;;;1.97;81.60;99980.27;105883;1285;75488;-23
2022/11/29 07:04:44;;;;;;;11.90;5.70;;;;;;;1.84;81.27;99976.38;105612;1297;74297;-23
2022/11/29 07:07:17;;;;;;;12.30;6.90;;;;;;;1.62;81.64;99978.42;105882;1284;73696;-22
2022/11/29 07:09:48;;;;;;;7.60;4.30;;;;;;;1.42;82.17;99974.89;105683;1296;60826;-23
2022/11/29 07:12:17;;;;;;;6.40;2.80;;;;;;;1.42;82.73;99978.65;105626;1290;60173;-22
2022/11/29 07:14:45;;;;;;;7.10;3.30;;;;;;;2.02;82.00;99978.75;105693;1294;73758;-23
2022/11/29 07:17:22;;;;;;;4.20;3.10;;;;;;;2.28;80.41;99986.67;105598;1295;75268;-23
2022/11/29 07:19:59;;;;;;;5.80;2.80;;;;;;;2.22;80.28;99984.98;105695;1294;72970;-23
2022/11/29 07:22:46;;;;;;;5.00;2.70;;;;;;;2.05;80.47;99989.98;105667;1296;60534;-23
2022/11/29 07:25:54;;;;;;;2.50;1.70;;;;;;;1.79;80.89;99987.33;105739;1292;60533;-23
2022/11/29 07:28:33;;;;;;;5.00;2.40;;;;;;;1.58;81.70;99989.98;105408;1294;74118;-22
2022/11/29 07:31:08;;;;;;;5.30;3.50;;;;;;;2.09;81.64;99990.18;105705;1291;74288;-23
2022/11/29 07:33:56;;;;;;;4.20;3.20;;;;;;;2.41;79.91;99990.23;105630;1294;73742;-22
2022/11/29 07:36:33;;;;;;;2.90;1.90;;;;;;;2.34;79.46;99987.19;105716;1287;60232;-23
2022/11/29 07:39:24;;;;;;;8.90;5.30;;;;;;;2.10;80.09;99989.98;105578;1297;60162;-24
2022/11/29 07:42:15;;;;;;;10.60;7.30;;;;;;;1.86;80.45;99990.36;105575;1289;74987;-24
2022/11/29 07:45:04;;;;;;;8.20;5.10;;;;;;;1.65;81.19;99989.80;105710;1294;74490;-29
2022/11/29 07:47:31;;;;;;;4.70;3.20;;;;;;;2.10;81.28;99992.19;105599;1297;72675;-25
2022/11/29 07:50:03;;;;;;;8.00;4.50;;;;;;;2.50;79.93;99989.73;105569;1295;60341;-24
2022/11/29 07:52:30;;;;;;;6.50;3.00;;;;;;;2.44;79.22;99989.75;105794;1287;61143;-24
2022/11/29 07:55:01;;;;;;;7.30;4.70;;;;;;;2.28;79.31;99989.23;105723;1288;73864;-24
2022/11/29 07:57:31;;;;;;;7.40;4.30;;;;;;;2.08;79.78;99989.55;105605;1295;74204;-24
2022/11/29 07:59:59;;;;;;;4.90;3.20;;;;;;;1.83;80.50;99988.06;105814;1295;72179;-25
2022/11/29 08:02:28;;;;;;;6.10;2.90;;;;;;;1.81;81.20;99986.92;105818;1295;58718;-25
2022/11/29 08:04:55;;;;;;;9.20;4.20;;;;;;;2.40;80.47;99988.18;105630;1297;60363;-25
2022/11/29 08:07:24;;;;;;;5.30;2.40;;;;;;;2.75;78.94;99986.16;105867;1287;75148;-25
2022/11/29 08:09:52;;;;;;;2.90;1.80;;;;;;;2.70;78.45;99988.40;105826;1288;74315;-25
2022/11/29 08:12:19;;;;;;;2.90;2.10;;;;;;;2.50;78.67;99988.36;105765;1294;72675;-25
2022/11/29 08:14:47;;;;;;;2.30;1.90;;;;;;;2.32;79.10;99990.66;105705;1295;60327;-25
2022/11/29 08:17:15;;;;;;;4.40;3.70;;;;;;;2.07;79.67;99986.31;105809;1295;61516;-25
2022/11/29 08:19:45;;;;;;;4.30;2.60;;;;;;;1.89;80.47;99988.41;105772;1295;75059;-24
2022/11/29 08:22:12;;;;;;;3.40;2.60;;;;;;;2.35;80.27;99988.18;105669;1290;74213;-25
2022/11/29 08:24:41;;;;;;;3.70;2.60;;;;;;;2.73;78.76;99980.40;105770;1285;73764;-25
2022/11/29 08:27:10;;;;;;;5.60;2.70;;;;;;;2.75;78.34;99983.59;105686;1294;61161;-25
2022/11/29 08:29:37;;;;;;;5.10;2.40;;;;;;;2.54;78.28;99982.41;105802;1293;60227;-24
2022/11/29 08:32:05;;;;;;;5.80;3.60;;;;;;;2.32;78.99;99982.27;105802;1295;74852;-24
2022/11/29 08:34:33;;;;;;;9.00;5.40;;;;;;;2.14;79.48;99983.35;105717;1288;74071;-24
2022/11/29 08:37:02;;;;;;;6.10;3.50;;;;;;;2.00;80.14;99982.23;105661;1295;71556;-24
2022/11/29 08:39:31;;;;;;;6.40;4.30;;;;;;;2.50;79.93;99984.25;105656;1295;59456;-25
2022/11/29 08:42:01;;;;;;;4.80;3.60;;;;;;;2.91;78.56;99979.10;105801;1295;61394;-24
2022/11/29 08:44:31;;;;;;;5.40;4.20;;;;;;;2.97;77.75;99983.52;105809;1293;73545;-24
2022/11/29 08:50:01;;;;;;;7.50;5.10;;;;;;;2.55;78.07;99987.01;105670;1298;72842;-24
2022/11/29 08:55:19;;;;;;;3.20;1.40;;;;;;;2.27;79.47;99985.17;105589;1291;61154;-24
2022/11/29 08:57:48;;;;;;;3.20;2.40;;;;;;;2.87;78.64;99980.96;105593;1290;74864;-24
2022/11/29 09:00:17;;;;;;;3.20;2.30;;;;;;;3.32;76.98;99974.58;105591;1297;74111;-25
2022/11/29 09:02:44;;;;;;;9.30;4.60;;;;;;;3.27;76.15;99971.65;105587;1297;72569;-24
2022/11/29 09:05:12;;;;;;;7.50;4.80;;;;;;;2.97;76.53;99972.55;105750;1295;61397;-24
2022/11/29 09:07:42;;;;;;;11.00;6.80;;;;;;;2.75;77.21;99972.98;105806;1294;61387;-24
2022/11/29 09:10:11;;;;;;;11.80;7.30;;;;;;;2.55;77.79;99972.27;105666;1288;73980;-24
2022/11/29 09:12:38;;;;;;;8.10;5.40;;;;;;;2.37;78.24;99970.63;105726;1294;74342;-24
2022/11/29 09:15:09;;;;;;;10.50;5.00;;;;;;;2.25;79.35;99969.62;105704;1289;73592;-24
2022/11/29 09:17:36;;;;;;;6.60;4.50;;;;;;;2.79;79.18;99968.70;105517;1299;60436;-24
2022/11/29 09:20:05;;;;;;;8.50;4.30;;;;;;;3.26;77.67;99967.91;105746;1293;60222;-24
2022/11/29 09:22:33;;;;;;;5.40;3.40;;;;;;;3.28;76.82;99966.15;105514;1292;74050;-24
2022/11/29 09:25:02;;;;;;;10.10;5.50;;;;;;;3.05;76.75;99967.46;105658;1294;75604;-24
2022/11/29 09:27:30;;;;;;;10.10;4.90;;;;;;;2.76;77.29;99969.67;105551;1295;73596;-24
2022/11/29 09:29:58;;;;;;;5.60;3.40;;;;;;;2.53;77.95;99972.33;105746;1287;60758;-24
2022/11/29 09:32:26;;;;;;;4.50;3.00;;;;;;;2.37;78.58;99973.03;105747;1295;60069;-24
2022/11/29 09:34:54;;;;;;;2.40;1.90;;;;;;;2.37;79.33;99971.29;105569;1297;73874;-24
2022/11/29 09:37:25;;;;;;;3.70;2.00;;;;;;;2.94;78.30;99970.78;105745;1295;74357;-24
2022/11/29 09:39:53;;;;;;;3.70;2.10;;;;;;;3.08;76.90;99969.06;105628;1294;73785;-24
2022/11/29 09:42:43;;;;;;;4.20;2.00;;;;;;;2.96;76.94;99970.69;105720;1294;61345;-24
2022/11/29 09:45:17;;;;;;;3.90;2.60;;;;;;;2.78;77.26;99965.48;105602;1290;61740;-25
2022/11/29 09:48:19;;;;;;;3.20;2.30;;;;;;;2.57;77.88;99967.41;105569;1297;74901;-24
2022/11/29 09:51:13;;;;;;;2.40;1.60;;;;;;;2.31;78.67;99967.04;105575;1282;75528;-25
2022/11/29 09:53:50;;;;;;;3.50;2.50;;;;;;;2.67;78.88;99966.52;105545;1295;73645;-24
2022/11/29 09:56:29;;;;;;;6.10;3.00;;;;;;;3.09;77.76;99966.64;105530;1297;60313;-24
2022/11/29 09:58:59;;;;;;;5.40;3.50;;;;;;;3.12;77.07;99966.02;105562;1291;61379;-24
2022/11/29 10:01:36;;;;;;;7.00;4.50;;;;;;;2.98;77.32;99968.74;105510;1295;73721;-24
2022/11/29 10:04:07;;;;;;;4.40;3.10;;;;;;;2.77;77.52;99965.17;105574;1291;74148;-24
2022/11/29 10:06:42;;;;;;;6.70;3.60;;;;;;;2.53;78.42;99963.59;105548;1297;74134;-24
2022/11/29 10:09:12;;;;;;;4.80;3.30;;;;;;;2.63;79.11;99961.36;105648;1291;62212;-25
2022/11/29 10:12:12;;;;;;;7.90;4.30;;;;;;;3.23;77.92;99958.23;105721;1295;61138;-24
2022/11/29 10:14:58;;;;;;;9.20;4.50;;;;;;;3.44;76.59;99959.55;105634;1298;73001;-24
2022/11/29 10:18:01;;;;;;;7.30;4.60;;;;;;;3.23;76.22;99958.25;105547;1294;75577;-24
2022/11/29 10:20:36;;;;;;;9.70;4.50;;;;;;;2.87;77.29;99957.64;105598;1298;74046;-24
2022/11/29 10:23:46;;;;;;;6.30;4.00;;;;;;;2.62;77.94;99954.88;105551;1296;59780;-24
2022/11/29 10:26:16;;;;;;;8.40;3.80;;;;;;;2.37;78.90;99959.16;105517;1294;61999;-24
2022/11/29 10:28:48;;;;;;;7.20;3.80;;;;;;;2.77;78.65;99954.18;105519;1297;75023;-24
2022/11/29 10:31:26;;;;;;;3.70;2.80;;;;;;;3.10;77.36;99950.80;105528;1290;72856;-24
2022/11/29 10:34:00;;;;;;;3.20;2.00;;;;;;;3.06;77.18;99951.66;105587;1290;73017;-24
2022/11/29 10:36:49;;;;;;;4.20;2.40;;;;;;;2.84;77.31;99953.30;105505;1298;60117;-24
2022/11/29 10:39:41;;;;;;;4.40;2.90;;;;;;;2.56;78.01;99954.56;105539;1300;59124;-24
2022/11/29 10:45:05;;;;;;;1.40;1.20;;;;;;;2.57;79.74;99956.95;105566;1304;73006;-23
2022/11/29 10:47:34;;;;;;;3.90;2.70;;;;;;;3.27;77.45;99956.55;105621;1291;72535;-24
2022/11/29 10:50:04;;;;;;;3.70;2.50;;;;;;;3.50;76.37;99956.44;105408;1292;61717;-24
2022/11/29 10:52:36;;;;;;;3.30;2.40;;;;;;;3.45;76.11;99956.05;105511;1294;59059;-24
2022/11/29 10:55:08;;;;;;;2.10;1.70;;;;;;;3.25;76.36;99957.67;105629;1298;72548;-24
2022/11/29 10:57:48;;;;;;;2.40;2.00;;;;;;;2.97;76.87;99957.10;105295;1300;73226;-23
2022/11/29 11:00:19;;;;;;;2.90;2.40;;;;;;;2.68;77.64;99951.41;105385;1299;72489;-24
2022/11/29 11:02:48;;;;;;;2.20;2.00;;;;;;;2.59;78.80;99952.42;105510;1297;62328;-24
2022/11/29 11:05:25;;;;;;;3.60;2.60;;;;;;;3.11;77.71;99951.31;105605;1297;59348;-24
2022/11/29 11:07:58;;;;;;;2.30;1.80;;;;;;;3.30;76.51;99951.30;105537;1297;74155;-23
2022/11/29 11:18:31;;;;;;;4.30;2.70;;;;;;;2.55;78.13;99955.61;99153;1329;599971;-22
2022/11/29 11:21:00;;;;;;;4.10;2.40;;;;;;;2.55;78.71;99955.30;101344;1296;62676;-24
2022/11/29 11:23:31;;;;;;;4.20;2.50;;;;;;;3.10;77.45;99954.09;101209;1315;62900;-23
2022/11/29 11:26:06;;;;;;;4.80;3.30;;;;;;;3.29;76.37;99957.34;101198;1314;74585;-23
2022/11/29 11:29:00;;;;;;;5.20;3.00;;;;;;;3.20;76.38;99956.29;101258;1307;75654;-24
2022/11/29 11:31:30;;;;;;;6.10;2.70;;;;;;;2.94;76.78;99955.52;99147;1317;2737062;-24
2022/11/29 11:34:25;;;;;;;3.30;2.40;;;;;;;2.70;77.32;99956.66;101422;1310;62257;-24
2022/11/29 11:37:13;;;;;;;3.60;1.90;;;;;;;2.40;77.84;99957.50;101483;1311;61721;-24
2022/11/29 11:39:41;;;;;;;4.50;2.20;;;;;;;2.66;78.79;99956.79;101390;1308;74540;-24
2022/11/29 11:42:36;;;;;;;3.80;1.90;;;;;;;3.22;77.37;99951.44;101515;1311;75772;-24
2022/11/29 11:45:10;;;;;;;5.90;2.80;;;;;;;3.20;76.20;99952.68;101487;1308;74520;-24
2022/11/29 11:47:57;;;;;;;5.50;2.40;;;;;;;2.93;76.55;99953.64;101537;1310;62899;-24
2022/11/29 11:50:33;;;;;;;8.90;4.80;;;;;;;2.61;77.58;99951.85;101384;1309;61041;-24
2022/11/29 11:53:18;;;;;;;11.20;6.50;;;;;;;2.32;78.26;99955.02;101072;1311;75321;-24
2022/11/29 11:55:55;;;;;;;4.10;2.20;;;;;;;2.14;79.16;99955.95;101339;1311;76432;-24
2022/11/29 11:58:50;;;;;;;7.10;3.10;;;;;;;2.64;79.23;99951.20;101335;1311;75064;-24
2022/11/29 12:01:22;;;;;;;4.80;2.60;;;;;;;3.11;77.70;99947.17;101419;1309;62909;-24
2022/11/29 12:03:57;;;;;;;3.30;2.20;;;;;;;3.01;77.05;99949.77;101247;1310;61067;-24
2022/11/29 12:06:46;;;;;;;3.00;2.00;;;;;;;2.72;77.36;99950.27;101343;1312;75618;-24
2022/11/29 12:09:58;;;;;;;4.80;3.20;;;;;;;2.32;78.08;99956.56;101475;1308;75733;-24
2022/11/29 12:12:31;;;;;;;2.40;1.60;;;;;;;1.95;79.19;99959.96;101205;1310;74333;-24
2022/11/29 12:15:00;;;;;;;5.10;3.00;;;;;;;1.87;80.24;99961.05;101206;1314;63811;-24
2022/11/29 12:17:45;;;;;;;5.90;3.50;;;;;;;2.32;79.90;99955.69;101250;1303;62971;-24
2022/11/29 12:20:43;;;;;;;3.50;2.10;;;;;;;2.46;78.67;99952.33;101336;1311;75550;-25
2022/11/29 12:23:11;;;;;;;5.00;3.40;;;;;;;2.24;78.71;99954.27;101367;1305;76557;-24
2022/11/29 12:26:04;;;;;;;6.40;4.00;;;;;;;1.95;79.52;99962.35;101336;1310;73499;-24
2022/11/29 12:28:39;;;;;;;8.90;4.20;;;;;;;1.69;80.35;99957.65;101376;1304;61212;-24
2022/11/29 12:31:42;;;;;;;6.50;3.10;;;;;;;1.71;81.32;99955.73;101164;1303;62805;-24
2022/11/29 12:34:39;;;;;;;2.70;1.90;;;;;;;2.28;79.63;99953.08;101365;1311;75620;-24